Flight Number: EUR1588 Duration: 2:45
Departure: Amsterdam Schiphol (EHAM) at 18:15 Distance: 1016 Nm
Arrival: Malaga (LEMG) at 21:00 Equipment: A321

Weather Information
Amsterdam Airport Schiphol, Netherlands (EHAM) 52-18N 004-46E -2M Jan 23, 2018 - 04:25 AM EST / 2018.01.23 0925 UTC
Wind: from the S (190 degrees) at 15 MPH (13 KT):0
Visibility: greater than 7 mile(s):0
Sky conditions: mostly cloudy Temperature: 44 F (7 C) Dew Point: 41 F (5 C) Relative Humidity: 87% Pressure (altimeter): 30.06 in. Hg (1018 hPa)
ob: EHAM 230925Z 19013KT 9999 BKN032 07/05 Q1018 NOSIG cycle: 9
Sunrise: 07:38 Sunset: 16:07 (UTC)

Malaga / Aeropuerto, Spain (LEMG) 36-40N 004-29W 7M Jan 23, 2018 - 04:30 AM EST / 2018.01.23 0930 UTC
Wind: from the WNW (300 degrees) at 7 MPH (6 KT):0
Visibility: greater than 7 mile(s):0 Temperature: 55 F (13 C) Dew Point: 48 F (9 C) Relative Humidity: 76% Pressure (altimeter): 30.33 in. Hg (1027 hPa)
ob: LEMG 230930Z 30006KT CAVOK 13/09 Q1027 NOSIG cycle: 9
Sunrise: 07:28 Sunset: 17:31 (UTC)

TAF:2018/01/23 06:27 TAF LEMG 230500Z 2306/2406 30008KT CAVOK TX20/2313Z TN09/2307Z BECMG 2309/2311 13006KT BECMG 2318/2320 28005KT PROB30 TEMPO 2312/2319 1000 BCFG BKN002

Previous Pireps for this route
Date Aircraft Flight time Fuel used Landing rate On time
2017-08-22A3212.2913440-832Yes
2017-09-01A3212.34878702000-551No
(pireps marked green are flown by you)

Route map